Time;durP1;ratioP1;P1;durP2;ratioP2;P2;SDS_P1;SDS_P2;PMS_P1;PMS_P2;Temp;Humidity;BMP_temperature;BMP_pressure;BME280_temperature;BME280_humidity;BME280_pressure;Samples;Min_cycle;Max_cycle;Signal;HPM_P1;HPM_P2
2022/01/01 00:00:29;;;;;;;39.42;23.13;;;13.90;99.90;;;;;;5017205;28;20041;-90
2022/01/01 00:02:58;;;;;;;37.53;22.13;;;13.90;99.90;;;;;;5007860;28;20390;-88
2022/01/01 00:05:24;;;;;;;40.72;22.85;;;13.90;99.90;;;;;;5035755;28;20028;-88
2022/01/01 00:07:50;;;;;;;42.78;20.95;;;13.90;99.90;;;;;;5035497;28;20101;-89
2022/01/01 00:10:17;;;;;;;33.70;18.52;;;13.90;99.90;;;;;;5017168;28;20112;-88
2022/01/01 00:12:42;;;;;;;35.65;19.23;;;13.90;99.90;;;;;;5034508;28;20017;-87
2022/01/01 00:15:11;;;;;;;34.85;17.65;;;13.90;99.90;;;;;;5017501;28;20038;-87
2022/01/01 00:17:39;;;;;;;43.75;19.50;;;13.90;99.90;;;;;;5017386;28;20017;-88
2022/01/01 00:20:05;;;;;;;35.83;18.50;;;13.90;99.90;;;;;;5016879;28;20118;-87
2022/01/01 00:22:31;;;;;;;38.35;18.25;;;13.90;99.90;;;;;;5034996;28;20029;-88
2022/01/01 00:25:17;;;;;;;38.47;19.58;;;13.90;99.90;;;;;;5017515;28;20465;-88
2022/01/01 00:27:43;;;;;;;40.35;20.88;;;13.90;99.90;;;;;;5016962;28;20033;-88
2022/01/01 00:30:10;;;;;;;41.47;22.60;;;13.90;99.90;;;;;;5017057;28;20055;-88
2022/01/01 00:32:37;;;;;;;42.50;22.42;;;13.90;99.90;;;;;;5017101;28;20017;-88
2022/01/01 00:35:06;;;;;;;43.63;22.48;;;13.90;99.90;;;;;;5016976;28;20021;-87
2022/01/01 00:37:32;;;;;;;47.05;24.38;;;13.90;99.90;;;;;;5017045;28;20017;-87
2022/01/01 00:39:58;;;;;;;41.97;22.58;;;13.90;99.90;;;;;;5016789;28;20116;-87
2022/01/01 00:42:24;;;;;;;46.05;24.17;;;13.90;99.90;;;;;;5017389;28;20060;-88
2022/01/01 00:44:51;;;;;;;48.28;24.35;;;13.90;99.90;;;;;;5017296;28;20029;-88
2022/01/01 00:47:17;;;;;;;51.92;26.77;;;13.90;99.90;;;;;;5016804;28;20040;-87
2022/01/01 00:49:43;;;;;;;49.92;27.85;;;13.90;99.90;;;;;;5016946;28;20017;-88
2022/01/01 00:52:09;;;;;;;54.45;28.75;;;13.90;99.90;;;;;;5016625;28;20036;-87
2022/01/01 00:54:41;;;;;;;46.78;27.75;;;13.90;99.90;;;;;;5000262;28;20041;-88
2022/01/01 00:57:11;;;;;;;50.22;28.60;;;13.90;99.90;;;;;;5016919;28;20466;-88
2022/01/01 00:59:37;;;;;;;48.10;28.98;;;13.90;99.90;;;;;;5016729;28;20025;-90
2022/01/01 01:02:03;;;;;;;51.25;29.60;;;13.90;99.90;;;;;;5000339;28;20028;-88
2022/01/01 01:04:29;;;;;;;51.35;30.27;;;13.90;99.90;;;;;;5034350;28;20071;-87
2022/01/01 01:06:54;;;;;;;46.88;29.17;;;13.90;99.90;;;;;;5016480;28;20036;-88
2022/01/01 01:09:23;;;;;;;53.85;33.85;;;13.90;99.90;;;;;;5016364;28;20028;-88
2022/01/01 01:12:04;;;;;;;59.85;35.60;;;13.90;99.90;;;;;;5016371;28;20528;-87
2022/01/01 01:14:39;;;;;;;;;;;13.90;99.90;;;;;;5017066;28;20107;-88
2022/01/01 01:17:07;;;;;;;63.53;36.67;;;13.90;99.90;;;;;;5034073;28;19905;-88
2022/01/01 01:19:40;;;;;;;58.90;36.97;;;13.90;99.90;;;;;;5034119;28;20025;-87
2022/01/01 01:22:06;;;;;;;61.25;38.13;;;13.80;99.90;;;;;;5016568;28;20052;-89
2022/01/01 01:24:35;;;;;;;67.85;40.40;;;13.90;99.90;;;;;;5016580;28;20492;-88
2022/01/01 01:27:03;;;;;;;63.15;37.60;;;13.90;99.90;;;;;;5016338;28;20013;-87
2022/01/01 01:29:36;;;;;;;65.07;39.13;;;13.90;99.90;;;;;;5016721;28;20057;-87
2022/01/01 01:32:02;;;;;;;62.05;39.15;;;13.80;99.90;;;;;;5034068;28;20056;-87
2022/01/01 01:34:28;;;;;;;71.70;40.85;;;13.90;99.90;;;;;;5016489;28;20068;-88
2022/01/01 01:36:56;;;;;;;62.05;40.22;;;13.90;99.90;;;;;;5033739;28;20025;-88
2022/01/01 01:39:22;;;;;;;69.43;43.65;;;13.90;99.90;;;;;;5000361;28;20466;-88
2022/01/01 01:41:49;;;;;;;66.07;43.08;;;13.90;99.90;;;;;;5016179;28;20113;-88
2022/01/01 01:44:31;;;;;;;71.20;42.63;;;13.90;99.90;;;;;;5000465;28;20037;-87
2022/01/01 01:46:59;;;;;;;76.85;43.72;;;13.90;99.90;;;;;;5033696;28;20520;-88
2022/01/01 01:49:25;;;;;;;68.50;44.70;;;13.80;99.90;;;;;;5034454;28;20029;-87
2022/01/01 01:51:51;;;;;;;77.38;43.35;;;13.80;99.90;;;;;;5018038;28;20018;-88
2022/01/01 01:54:19;;;;;;;66.72;44.25;;;13.80;99.90;;;;;;5022972;28;20030;-88
2022/01/01 01:56:45;;;;;;;66.95;40.42;;;13.80;99.90;;;;;;5024605;28;20010;-92
2022/01/01 01:59:12;;;;;;;68.30;40.55;;;13.80;99.90;;;;;;5040405;28;20021;-86
2022/01/01 02:01:37;;;;;;;65.68;40.22;;;13.80;99.90;;;;;;5040072;28;20068;-88
2022/01/01 02:04:07;;;;;;;60.05;37.50;;;13.80;99.90;;;;;;5039504;28;20017;-88
2022/01/01 02:06:34;;;;;;;71.63;40.20;;;13.80;99.90;;;;;;5037160;28;20030;-88
2022/01/01 02:09:00;;;;;;;64.97;38.63;;;13.70;99.90;;;;;;5027781;28;20112;-86
2022/01/01 02:11:27;;;;;;;66.95;41.08;;;13.70;99.90;;;;;;5016219;28;20056;-88
2022/01/01 02:18:47;;;;;;;74.20;42.95;;;13.70;99.90;;;;;;5033565;28;20029;-88
2022/01/01 02:21:16;;;;;;;65.63;41.05;;;13.70;99.90;;;;;;5016501;28;20462;-87
2022/01/01 02:23:44;;;;;;;71.63;43.88;;;13.70;99.90;;;;;;5037425;28;20144;-87
2022/01/01 02:26:12;;;;;;;71.45;43.10;;;13.80;99.90;;;;;;5019809;28;20022;-88
2022/01/01 02:28:46;;;;;;;69.20;42.28;;;13.80;99.90;;;;;;5019408;28;20029;-88
2022/01/01 02:31:15;;;;;;;66.53;41.55;;;13.80;99.90;;;;;;5019255;28;20067;-87
2022/01/01 02:33:45;;;;;;;71.63;41.00;;;13.70;99.90;;;;;;5019543;28;20026;-87
2022/01/01 02:36:11;;;;;;;65.05;40.42;;;13.80;99.90;;;;;;5019393;28;20021;-88
2022/01/01 02:38:38;;;;;;;61.28;38.85;;;13.80;99.90;;;;;;5019592;28;20028;-88
2022/01/01 02:41:06;;;;;;;63.83;40.83;;;13.80;99.90;;;;;;5019365;28;20030;-87
2022/01/01 02:43:42;;;;;;;67.88;39.85;;;13.80;99.90;;;;;;5003800;28;20057;-88
2022/01/01 02:46:08;;;;;;;60.67;38.13;;;13.80;99.90;;;;;;5005321;28;20138;-87
2022/01/01 02:48:33;;;;;;;59.80;37.13;;;13.70;99.90;;;;;;5037787;28;20025;-88
2022/01/01 02:51:01;;;;;;;60.40;38.53;;;13.70;99.90;;;;;;5057848;28;20032;-89
2022/01/01 02:53:27;;;;;;;60.22;38.20;;;13.70;99.90;;;;;;5058483;28;20050;-91
2022/01/01 02:55:53;;;;;;;62.05;37.70;;;13.70;99.90;;;;;;5012338;28;20049;-88
2022/01/01 02:58:21;;;;;;;60.20;38.22;;;13.70;99.90;;;;;;5020181;28;20025;-88
2022/01/01 03:00:46;;;;;;;64.45;36.58;;;13.70;99.90;;;;;;5019356;28;20049;-87
2022/01/01 03:03:12;;;;;;;61.05;34.83;;;13.80;99.90;;;;;;5018940;28;20061;-86
2022/01/01 03:05:38;;;;;;;52.38;34.13;;;13.80;99.90;;;;;;5036648;28;20044;-88
2022/01/01 03:08:04;;;;;;;61.67;35.78;;;13.80;99.90;;;;;;5019287;28;20073;-87
2022/01/01 03:10:30;;;;;;;59.83;34.90;;;13.80;99.90;;;;;;5018722;28;20017;-88
2022/01/01 03:12:55;;;;;;;60.45;37.08;;;13.70;99.90;;;;;;5019021;28;20030;-88
2022/01/01 03:15:21;;;;;;;62.53;35.47;;;13.70;99.90;;;;;;5018560;28;20052;-88
2022/01/01 03:17:47;;;;;;;58.33;34.00;;;13.70;99.90;;;;;;5018722;28;20021;-88
2022/01/01 03:20:13;;;;;;;56.67;33.75;;;13.70;99.90;;;;;;4998815;28;20033;-87
2022/01/01 03:22:38;;;;;;;56.30;31.52;;;13.70;99.90;;;;;;4998597;28;20026;-87
2022/01/01 03:25:04;;;;;;;45.80;30.25;;;13.70;99.90;;;;;;5014934;28;20033;-86
2022/01/01 03:27:30;;;;;;;54.80;31.25;;;13.70;99.90;;;;;;4998909;28;20026;-88
2022/01/01 03:29:58;;;;;;;49.22;29.77;;;13.70;99.90;;;;;;4998943;28;20048;-88
2022/01/01 03:32:26;;;;;;;55.67;31.52;;;13.70;99.90;;;;;;4998415;28;20113;-87
2022/01/01 03:35:00;;;;;;;54.13;30.15;;;13.70;99.90;;;;;;5004283;28;20107;-87
2022/01/01 03:37:26;;;;;;;50.63;29.92;;;13.70;99.90;;;;;;5015324;28;20028;-87
2022/01/01 03:39:55;;;;;;;55.22;28.70;;;13.70;99.90;;;;;;4998630;28;20060;-87
2022/01/01 03:42:23;;;;;;;57.20;29.15;;;13.70;99.90;;;;;;4998543;28;20026;-87
2022/01/01 03:44:51;;;;;;;53.03;26.80;;;13.70;99.90;;;;;;4998558;28;20161;-88
2022/01/01 03:47:17;;;;;;;49.83;26.67;;;13.70;99.90;;;;;;5015672;28;20030;-88
2022/01/01 03:49:50;;;;;;;53.63;27.08;;;13.70;99.90;;;;;;4998718;28;20022;-88
2022/01/01 03:52:16;;;;;;;45.55;25.23;;;13.70;99.90;;;;;;5014878;28;20022;-87
2022/01/01 03:54:42;;;;;;;47.22;24.70;;;13.70;99.90;;;;;;5014172;28;20394;-87
2022/01/01 03:57:10;;;;;;;47.15;24.27;;;13.70;99.90;;;;;;4998363;28;20029;-88
2022/01/01 03:59:36;;;;;;;40.42;23.20;;;13.70;99.90;;;;;;4998186;28;20021;-88
2022/01/01 04:02:03;;;;;;;41.63;23.10;;;13.70;99.90;;;;;;5014191;28;20029;-88
2022/01/01 04:04:29;;;;;;;41.20;21.05;;;13.70;99.90;;;;;;4998120;28;20045;-87
2022/01/01 04:06:57;;;;;;;34.28;20.75;;;13.70;99.90;;;;;;4998116;28;20041;-88
2022/01/01 04:09:25;;;;;;;40.67;19.65;;;13.70;99.90;;;;;;5015823;28;20109;-88
2022/01/01 04:11:51;;;;;;;40.75;19.08;;;13.60;99.90;;;;;;5014167;28;20026;-88
2022/01/01 04:14:17;;;;;;;43.22;18.50;;;13.70;99.90;;;;;;5014586;28;20040;-88
2022/01/01 04:16:44;;;;;;;41.15;19.08;;;13.70;99.90;;;;;;4998113;28;20034;-88
2022/01/01 04:19:10;;;;;;;33.35;18.05;;;13.70;99.90;;;;;;4981997;28;20026;-87
2022/01/01 04:21:36;;;;;;;35.70;17.65;;;13.70;99.90;;;;;;4981634;28;20120;-87
2022/01/01 04:24:03;;;;;;;31.88;15.27;;;13.70;99.90;;;;;;4997472;28;20066;-87
2022/01/01 04:26:29;;;;;;;36.85;15.25;;;13.70;99.90;;;;;;4997550;28;20029;-87
2022/01/01 04:28:55;;;;;;;34.22;14.77;;;13.70;99.90;;;;;;5013999;28;20116;-87
2022/01/01 04:31:21;;;;;;;36.88;15.35;;;13.70;99.90;;;;;;4997730;28;20038;-88
2022/01/01 04:33:46;;;;;;;30.25;14.07;;;13.70;99.90;;;;;;4997739;28;20022;-87
2022/01/01 04:36:13;;;;;;;31.25;15.30;;;13.70;99.90;;;;;;4997041;28;20040;-87
2022/01/01 04:38:42;;;;;;;32.60;14.20;;;13.70;99.90;;;;;;5013598;28;20068;-87
2022/01/01 04:41:12;;;;;;;32.42;14.32;;;13.80;99.90;;;;;;5013113;28;20029;-87
2022/01/01 04:43:40;;;;;;;30.88;14.60;;;13.70;99.90;;;;;;4996289;28;20034;-87
2022/01/01 04:46:07;;;;;;;34.40;14.52;;;13.70;99.90;;;;;;4996999;28;20054;-88
2022/01/01 04:48:37;;;;;;;30.92;12.60;;;13.80;99.90;;;;;;4996713;28;20466;-87
2022/01/01 04:51:06;;;;;;;25.58;12.38;;;13.80;99.90;;;;;;4997283;28;20046;-88
2022/01/01 04:53:33;;;;;;;28.75;11.60;;;13.80;99.90;;;;;;4993605;28;20158;-87
2022/01/01 04:56:06;;;;;;;31.30;11.38;;;13.80;99.90;;;;;;4993667;28;20572;-87
2022/01/01 04:58:31;;;;;;;25.30;11.57;;;13.80;99.90;;;;;;4981560;28;20033;-88
2022/01/01 05:00:57;;;;;;;28.92;10.95;;;13.80;99.90;;;;;;5013393;28;20026;-87
2022/01/01 05:03:23;;;;;;;24.85;10.82;;;13.80;99.90;;;;;;4997010;28;20054;-87
2022/01/01 05:05:48;;;;;;;20.55;10.30;;;13.70;99.90;;;;;;4997038;28;20084;-87
2022/01/01 05:08:16;;;;;;;21.95;9.77;;;13.80;99.90;;;;;;4997015;28;20021;-87
2022/01/01 05:10:42;;;;;;;22.60;9.77;;;13.80;99.90;;;;;;4996954;28;20029;-88
2022/01/01 05:13:07;;;;;;;20.63;9.45;;;13.80;99.90;;;;;;4996773;28;20359;-88
2022/01/01 05:15:36;;;;;;;22.00;9.80;;;13.80;99.90;;;;;;4997028;28;20453;-87
2022/01/01 05:18:02;;;;;;;23.42;9.57;;;13.80;99.90;;;;;;5013452;28;20030;-87
2022/01/01 05:20:27;;;;;;;17.80;8.98;;;13.80;99.90;;;;;;5014647;28;20044;-88
2022/01/01 05:22:53;;;;;;;26.05;11.00;;;13.80;99.90;;;;;;4997039;28;20038;-87
2022/01/01 05:25:19;;;;;;;21.33;9.65;;;13.80;99.90;;;;;;5012702;28;20386;-88
2022/01/01 05:27:45;;;;;;;20.80;9.50;;;13.80;99.90;;;;;;5013497;28;20022;-87
2022/01/01 05:30:11;;;;;;;19.83;10.13;;;13.80;99.90;;;;;;4996622;28;20030;-88
2022/01/01 05:32:37;;;;;;;22.50;9.63;;;13.80;99.90;;;;;;4984724;28;20038;-88
2022/01/01 05:35:04;;;;;;;22.48;9.85;;;13.80;99.90;;;;;;5038075;28;20010;-87
2022/01/01 05:37:30;;;;;;;19.75;9.90;;;13.80;99.90;;;;;;5021002;28;20060;-89
2022/01/01 05:39:55;;;;;;;22.65;9.98;;;13.80;99.90;;;;;;5037642;28;20006;-87
2022/01/01 05:42:21;;;;;;;22.10;9.95;;;13.80;99.90;;;;;;5038070;28;20026;-88
2022/01/01 05:44:47;;;;;;;23.10;10.85;;;13.80;99.90;;;;;;5019653;28;20026;-88
2022/01/01 05:47:12;;;;;;;21.40;9.70;;;13.80;99.90;;;;;;5034902;28;20030;-89
2022/01/01 05:49:40;;;;;;;21.63;9.95;;;13.80;99.90;;;;;;5015178;28;20097;-92
2022/01/01 05:52:06;;;;;;;21.55;9.57;;;13.80;99.90;;;;;;5018773;28;20052;-88
2022/01/01 05:54:35;;;;;;;18.33;9.25;;;13.80;99.90;;;;;;5008469;28;20056;-87
2022/01/01 05:57:01;;;;;;;15.70;9.23;;;13.80;99.90;;;;;;5019322;28;20057;-88
2022/01/01 05:59:28;;;;;;;23.67;10.65;;;13.80;99.90;;;;;;5003844;28;20026;-87
2022/01/01 06:01:54;;;;;;;19.77;9.75;;;13.80;99.90;;;;;;5020323;28;20026;-88
2022/01/01 06:04:20;;;;;;;26.52;10.65;;;13.80;99.90;;;;;;5020162;28;20033;-87
2022/01/01 06:06:46;;;;;;;20.42;9.43;;;13.80;99.90;;;;;;5020128;28;20022;-87
2022/01/01 06:09:12;;;;;;;21.33;10.07;;;13.80;99.90;;;;;;5003454;28;20484;-88
2022/01/01 06:11:37;;;;;;;17.70;9.52;;;13.80;99.90;;;;;;4987014;28;20029;-87
2022/01/01 06:14:03;;;;;;;18.27;9.82;;;13.80;99.90;;;;;;5019909;28;20068;-87
2022/01/01 06:16:29;;;;;;;20.60;9.77;;;13.80;99.90;;;;;;5003533;28;20082;-87
2022/01/01 06:18:54;;;;;;;21.05;10.00;;;13.80;99.90;;;;;;5019651;28;20021;-87
2022/01/01 06:21:20;;;;;;;25.98;9.88;;;13.80;99.90;;;;;;5003488;28;20032;-87
2022/01/01 06:23:46;;;;;;;21.20;9.18;;;13.80;99.90;;;;;;5003777;28;20041;-87
2022/01/01 06:26:11;;;;;;;19.95;8.93;;;13.80;99.90;;;;;;5003596;28;20024;-87
2022/01/01 06:28:37;;;;;;;21.23;9.57;;;13.80;99.90;;;;;;5003511;28;20390;-86
2022/01/01 06:31:03;;;;;;;19.95;9.20;;;13.80;99.90;;;;;;5019551;28;20381;-87
2022/01/01 06:33:28;;;;;;;18.13;8.73;;;13.80;99.90;;;;;;5019751;28;20032;-87
2022/01/01 06:35:56;;;;;;;17.63;8.52;;;13.80;99.90;;;;;;5019655;28;20025;-87
2022/01/01 06:38:21;;;;;;;18.77;8.70;;;13.80;99.90;;;;;;5019158;28;20060;-88
2022/01/01 06:40:47;;;;;;;20.95;9.02;;;13.80;99.90;;;;;;4997049;28;20033;-87
2022/01/01 06:43:14;;;;;;;17.77;8.10;;;13.80;99.90;;;;;;5008220;28;20042;-88
2022/01/01 06:45:41;;;;;;;16.58;8.20;;;13.80;99.90;;;;;;4988467;28;20041;-88
2022/01/01 06:48:07;;;;;;;20.92;9.07;;;13.80;99.90;;;;;;5026706;28;20041;-87
2022/01/01 06:50:33;;;;;;;20.77;8.05;;;13.80;99.90;;;;;;4999359;28;20026;-88
2022/01/01 06:52:58;;;;;;;21.08;8.35;;;13.80;99.90;;;;;;5051101;28;20081;-88
2022/01/01 06:55:24;;;;;;;15.55;7.78;;;13.80;99.90;;;;;;5041440;28;20077;-88
2022/01/01 06:57:50;;;;;;;18.88;8.20;;;13.80;99.90;;;;;;5006699;28;20488;-87
2022/01/01 07:00:16;;;;;;;15.43;7.63;;;13.80;99.90;;;;;;4991648;28;20493;-87
2022/01/01 07:02:46;;;;;;;15.93;7.22;;;13.80;99.90;;;;;;5019321;28;20025;-87
2022/01/01 07:05:16;;;;;;;14.98;7.53;;;13.70;99.90;;;;;;5020676;28;20096;-87
2022/01/01 07:07:42;;;;;;;18.40;7.80;;;13.70;99.90;;;;;;5018777;28;20026;-88
2022/01/01 07:10:11;;;;;;;16.70;7.03;;;13.70;99.90;;;;;;5019698;28;20033;-88
2022/01/01 07:12:38;;;;;;;14.40;7.28;;;13.70;99.90;;;;;;5019051;28;20028;-87
2022/01/01 07:15:08;;;;;;;18.67;7.53;;;13.70;99.90;;;;;;5037156;28;20022;-88
2022/01/01 07:17:34;;;;;;;16.08;7.22;;;13.60;99.90;;;;;;5019106;28;20132;-87
2022/01/01 07:20:02;;;;;;;17.50;7.20;;;13.60;99.90;;;;;;5018827;28;20064;-87
2022/01/01 07:22:30;;;;;;;14.90;6.85;;;13.50;99.90;;;;;;5002868;28;20124;-92
2022/01/01 07:24:57;;;;;;;17.20;7.35;;;13.50;99.90;;;;;;5018666;28;20045;-87
2022/01/01 07:27:23;;;;;;;14.10;6.78;;;13.50;99.90;;;;;;5018774;28;20052;-88
2022/01/01 07:29:49;;;;;;;20.38;7.18;;;13.50;99.90;;;;;;5018607;28;20113;-88
2022/01/01 07:32:15;;;;;;;15.43;6.78;;;13.50;99.90;;;;;;5035953;28;20474;-87
2022/01/01 07:34:41;;;;;;;17.33;6.97;;;13.50;99.90;;;;;;5036291;28;20459;-87
2022/01/01 07:37:07;;;;;;;18.70;6.32;;;13.40;99.90;;;;;;5018298;28;20025;-87
2022/01/01 07:39:32;;;;;;;16.85;6.60;;;13.40;99.90;;;;;;5035771;28;20476;-87
2022/01/01 07:41:58;;;;;;;16.20;6.75;;;13.40;99.90;;;;;;5018577;28;20022;-87
2022/01/01 07:44:24;;;;;;;12.38;6.10;;;13.40;99.90;;;;;;5018636;28;20381;-87
2022/01/01 07:46:50;;;;;;;14.82;5.72;;;13.40;99.90;;;;;;5018304;28;20037;-87
2022/01/01 07:49:17;;;;;;;13.85;5.47;;;13.40;99.90;;;;;;5018347;28;20047;-87
2022/01/01 07:51:43;;;;;;;15.27;5.78;;;13.40;99.90;;;;;;5018643;28;20033;-87
2022/01/01 07:54:08;;;;;;;13.60;5.25;;;13.40;99.90;;;;;;5018263;28;20429;-87
2022/01/01 07:56:34;;;;;;;14.70;5.13;;;13.40;99.90;;;;;;5002130;28;20036;-88
2022/01/01 07:59:00;;;;;;;14.40;5.63;;;13.30;99.90;;;;;;5002133;28;20036;-86
2022/01/01 08:01:25;;;;;;;13.98;5.47;;;13.40;99.90;;;;;;5018472;28;20481;-87
2022/01/01 08:03:51;;;;;;;14.02;5.63;;;13.30;99.90;;;;;;5018091;28;20458;-87
2022/01/01 08:06:17;;;;;;;13.13;5.72;;;13.30;99.90;;;;;;5035914;28;20444;-87
2022/01/01 08:08:43;;;;;;;14.25;5.57;;;13.30;99.90;;;;;;5001825;28;20040;-87
2022/01/01 08:11:10;;;;;;;15.70;5.70;;;13.30;99.90;;;;;;5018192;28;20112;-86
2022/01/01 08:13:39;;;;;;;11.68;5.35;;;13.30;99.90;;;;;;5001450;28;20033;-87
2022/01/01 08:16:07;;;;;;;13.73;5.60;;;13.30;99.90;;;;;;5007896;28;20026;-88
2022/01/01 08:18:33;;;;;;;15.35;5.82;;;13.30;99.90;;;;;;5017526;28;20523;-89
2022/01/01 08:20:59;;;;;;;19.73;5.65;;;13.30;99.90;;;;;;5001695;28;20021;-88
2022/01/01 08:23:27;;;;;;;12.63;4.97;;;13.30;99.90;;;;;;5015448;28;20033;-88
2022/01/01 08:25:56;;;;;;;15.95;5.05;;;13.30;99.90;;;;;;5018440;28;20446;-88
2022/01/01 08:28:22;;;;;;;13.18;5.05;;;13.30;99.90;;;;;;5018091;28;20477;-87
2022/01/01 08:30:54;;;;;;;13.98;4.80;;;13.30;99.90;;;;;;5017629;28;20026;-89
2022/01/01 08:33:21;;;;;;;13.63;5.63;;;13.30;99.90;;;;;;5010098;28;20033;-89
2022/01/01 08:35:46;;;;;;;14.25;5.05;;;13.30;99.90;;;;;;5034449;28;20025;-89
2022/01/01 08:41:56;;;;;;;13.30;4.57;;;13.30;99.90;;;;;;5035145;28;20087;-88
2022/01/01 08:44:21;;;;;;;15.35;5.15;;;13.30;99.90;;;;;;4997703;28;20092;-89
2022/01/01 08:46:47;;;;;;;13.73;5.90;;;13.30;99.90;;;;;;4981251;28;20034;-88
2022/01/01 08:49:13;;;;;;;16.40;5.05;;;13.30;99.90;;;;;;4997930;28;20155;-88
2022/01/01 08:51:42;;;;;;;17.50;5.95;;;13.30;99.90;;;;;;4997497;28;20095;-88
2022/01/01 08:54:08;;;;;;;14.15;4.75;;;13.30;99.90;;;;;;5013849;28;20430;-88
2022/01/01 08:56:34;;;;;;;14.10;5.05;;;13.30;99.90;;;;;;4981276;28;20022;-88
2022/01/01 08:59:00;;;;;;;14.15;5.38;;;13.30;99.90;;;;;;5012039;28;20485;-89
2022/01/01 09:01:26;;;;;;;14.35;5.30;;;13.40;99.90;;;;;;5016769;28;20030;-88
2022/01/01 09:03:52;;;;;;;11.27;4.90;;;13.40;99.90;;;;;;5000165;28;20474;-89
2022/01/01 09:06:18;;;;;;;15.13;4.65;;;13.40;99.90;;;;;;5000653;28;20028;-89
2022/01/01 09:08:44;;;;;;;10.85;4.82;;;13.50;99.90;;;;;;5000615;28;20076;-89
2022/01/01 09:11:11;;;;;;;11.13;4.88;;;13.50;99.90;;;;;;5017034;28;20061;-89
2022/01/01 09:13:41;;;;;;;14.25;5.55;;;13.50;99.90;;;;;;5017803;28;20037;-89
2022/01/01 09:16:08;;;;;;;14.80;4.85;;;13.60;99.90;;;;;;5034747;28;20030;-87
2022/01/01 09:18:34;;;;;;;11.68;4.85;;;13.60;99.90;;;;;;5040461;28;20010;-92
2022/01/01 09:20:59;;;;;;;15.68;4.75;;;13.60;99.90;;;;;;5040748;28;20028;-87
2022/01/01 09:23:25;;;;;;;10.82;4.20;;;13.60;99.90;;;;;;5015807;28;20049;-86
2022/01/01 09:25:51;;;;;;;12.32;4.55;;;13.60;99.90;;;;;;5050008;28;20025;-86
2022/01/01 09:28:16;;;;;;;11.40;4.53;;;13.60;99.90;;;;;;5005437;28;20033;-86
2022/01/01 09:30:42;;;;;;;13.02;4.53;;;13.60;99.90;;;;;;5011083;28;20021;-87
2022/01/01 09:33:09;;;;;;;14.50;4.57;;;13.70;99.90;;;;;;5027712;28;20033;-86
2022/01/01 09:35:35;;;;;;;12.20;5.15;;;13.70;99.90;;;;;;5033541;28;20026;-87
2022/01/01 09:38:01;;;;;;;10.95;4.15;;;13.70;99.90;;;;;;4999251;28;20505;-86
2022/01/01 09:40:29;;;;;;;9.82;3.65;;;13.70;99.90;;;;;;5002150;28;20520;-88
2022/01/01 09:42:58;;;;;;;13.18;4.25;;;13.80;99.90;;;;;;5016073;28;20418;-87
2022/01/01 09:45:24;;;;;;;17.90;5.35;;;13.80;99.90;;;;;;4997617;28;20030;-87
2022/01/01 09:47:50;;;;;;;11.57;4.50;;;13.80;99.90;;;;;;5030319;28;20116;-87
2022/01/01 09:50:16;;;;;;;10.68;4.43;;;13.80;99.90;;;;;;5016072;28;20033;-86
2022/01/01 09:52:42;;;;;;;13.60;4.50;;;13.80;99.90;;;;;;5033656;28;20059;-89
2022/01/01 09:55:09;;;;;;;10.30;4.45;;;13.80;99.90;;;;;;4999454;28;20050;-87
2022/01/01 09:57:34;;;;;;;16.63;5.45;;;13.80;99.90;;;;;;5016072;28;20034;-88
2022/01/01 10:00:00;;;;;;;11.27;4.43;;;13.80;99.90;;;;;;4999203;28;20072;-79
2022/01/01 10:02:26;;;;;;;10.45;4.55;;;13.80;99.90;;;;;;5000145;28;20437;-88
2022/01/01 10:04:56;;;;;;;12.93;4.45;;;13.80;99.90;;;;;;5015269;28;20042;-88
2022/01/01 10:07:28;;;;;;;13.07;4.43;;;13.80;99.90;;;;;;5033438;28;20029;-88
2022/01/01 10:09:54;;;;;;;13.25;5.40;;;13.80;99.90;;;;;;5015581;28;20060;-87
2022/01/01 10:12:35;;;;;;;14.75;5.45;;;13.80;99.90;;;;;;5034134;28;20436;-88
2022/01/01 10:15:06;;;;;;;13.70;4.90;;;13.80;99.90;;;;;;5016100;28;20069;-86
2022/01/01 10:17:35;;;;;;;13.45;4.90;;;13.80;99.90;;;;;;5033710;28;20076;-86
2022/01/01 10:20:02;;;;;;;9.48;5.00;;;13.80;99.90;;;;;;5026391;28;20017;-89
2022/01/01 10:22:28;;;;;;;10.90;4.75;;;13.80;99.90;;;;;;5016374;28;20029;-90
2022/01/01 10:27:56;;;;;;;13.00;5.28;;;13.80;99.90;;;;;;5033172;28;20104;-86
2022/01/01 10:30:24;;;;;;;10.75;4.90;;;13.80;99.90;;;;;;5015936;28;20021;-86
2022/01/01 10:33:12;;;;;;;14.18;5.20;;;13.80;99.90;;;;;;5032823;28;20025;-86
2022/01/01 10:35:44;;;;;;;11.80;5.15;;;13.90;99.90;;;;;;5015822;28;20086;-86
2022/01/01 10:38:13;;;;;;;10.95;5.10;;;13.90;99.90;;;;;;5033545;28;20030;-86
2022/01/01 10:40:39;;;;;;;12.38;5.22;;;13.90;99.90;;;;;;5015807;28;20021;-86
2022/01/01 10:43:05;;;;;;;14.25;6.00;;;13.90;99.90;;;;;;5017695;28;20034;-87
2022/01/01 10:45:37;;;;;;;13.75;5.47;;;13.90;99.90;;;;;;5037390;28;20108;-87
2022/01/01 10:50:51;;;;;;;13.27;5.80;;;14.00;99.90;;;;;;5022865;28;20029;-87
2022/01/01 10:53:21;;;;;;;;;;;14.00;99.90;;;;;;5038358;28;20025;-86
2022/01/01 10:55:52;;;;;;;13.45;6.15;;;14.00;99.90;;;;;;5039791;28;19912;-87
2022/01/01 10:58:20;;;;;;;11.02;4.88;;;14.00;99.90;;;;;;5027479;28;20378;-85
2022/01/01 11:00:47;;;;;;;11.20;5.47;;;14.00;99.90;;;;;;5037082;28;20031;-87
2022/01/01 11:03:16;;;;;;;11.40;5.00;;;14.00;99.90;;;;;;5018671;28;20025;-86
2022/01/01 11:05:43;;;;;;;10.32;5.38;;;14.10;99.90;;;;;;5018762;28;20025;-84
2022/01/01 11:08:10;;;;;;;12.02;5.07;;;14.10;99.90;;;;;;5037122;28;20037;-85
2022/01/01 11:10:37;;;;;;;10.05;4.88;;;14.10;99.90;;;;;;4985941;28;20022;-86
2022/01/01 11:13:04;;;;;;;12.02;5.47;;;14.20;99.90;;;;;;5002018;28;20386;-84
2022/01/01 11:15:31;;;;;;;11.75;5.70;;;14.20;99.90;;;;;;5018305;28;20021;-85
2022/01/01 11:17:58;;;;;;;9.75;5.15;;;14.20;99.90;;;;;;5018189;28;20049;-85
2022/01/01 11:20:33;;;;;;;13.80;6.25;;;14.20;99.90;;;;;;5002193;28;20029;-85
2022/01/01 11:23:10;;;;;;;13.20;5.47;;;14.30;99.90;;;;;;5035736;28;20155;-84
2022/01/01 11:25:37;;;;;;;9.40;4.70;;;14.30;99.90;;;;;;5003421;28;20333;-84
2022/01/01 11:28:07;;;;;;;10.43;5.00;;;14.40;99.90;;;;;;5001839;28;20030;-85
2022/01/01 11:30:38;;;;;;;8.85;5.03;;;14.40;99.90;;;;;;5018116;28;20024;-85
2022/01/01 11:33:06;;;;;;;12.98;5.10;;;14.40;99.90;;;;;;5017835;28;20116;-85
2022/01/01 11:35:38;;;;;;;8.73;4.63;;;14.40;99.90;;;;;;5035391;28;20041;-86
2022/01/01 11:38:10;;;;;;;11.05;5.18;;;14.40;99.90;;;;;;5017581;28;20064;-86
2022/01/01 11:40:44;;;;;;;10.70;4.45;;;14.40;99.90;;;;;;5017546;28;20477;-85
2022/01/01 11:43:30;;;;;;;10.25;5.15;;;14.50;99.90;;;;;;5017643;28;20042;-85
2022/01/01 11:46:03;;;;;;;14.00;4.93;;;14.50;99.90;;;;;;5012937;28;20022;-85
2022/01/01 11:48:31;;;;;;;11.70;4.90;;;14.50;99.90;;;;;;5015645;28;20028;-85
2022/01/01 11:50:57;;;;;;;12.57;4.78;;;14.50;99.90;;;;;;5014007;28;20399;-85
2022/01/01 11:53:30;;;;;;;13.00;5.88;;;14.60;99.90;;;;;;5013702;28;20029;-85
2022/01/01 11:56:10;;;;;;;10.10;5.07;;;14.50;99.90;;;;;;5015994;28;20568;-85
2022/01/01 11:58:49;;;;;;;9.95;4.50;;;14.60;99.90;;;;;;4997910;28;20124;-86
2022/01/01 12:01:19;;;;;;;8.27;4.70;;;14.60;99.90;;;;;;4998862;28;20026;-84
2022/01/01 12:03:52;;;;;;;9.60;4.57;;;14.60;99.90;;;;;;5015685;28;20076;-85
2022/01/01 12:06:19;;;;;;;9.80;4.90;;;14.60;99.90;;;;;;4999898;28;20365;-86
2022/01/01 12:08:46;;;;;;;9.63;4.60;;;14.60;99.90;;;;;;5013516;28;20125;-86
2022/01/01 12:11:29;;;;;;;11.02;4.53;;;14.70;99.90;;;;;;5013821;28;20062;-86
2022/01/01 12:13:56;;;;;;;9.73;4.32;;;14.70;99.90;;;;;;5015120;28;20041;-87
2022/01/01 12:16:22;;;;;;;8.20;4.30;;;14.70;99.90;;;;;;5013792;28;20112;-86
2022/01/01 12:18:48;;;;;;;8.50;4.50;;;14.70;99.90;;;;;;4997376;28;20029;-86
2022/01/01 12:21:22;;;;;;;9.43;4.28;;;14.80;99.90;;;;;;5013746;28;20029;-86
2022/01/01 12:23:54;;;;;;;9.80;4.68;;;14.80;99.90;;;;;;4997161;28;20033;-86
2022/01/01 12:26:31;;;;;;;8.73;4.05;;;14.80;99.90;;;;;;5013739;28;20033;-86
2022/01/01 12:29:06;;;;;;;15.63;4.78;;;14.80;99.90;;;;;;4999319;28;20029;-86
2022/01/01 12:31:32;;;;;;;8.02;4.30;;;14.90;99.90;;;;;;4997903;28;20030;-87
2022/01/01 12:34:08;;;;;;;10.77;4.28;;;14.90;99.90;;;;;;5016090;28;20033;-85
2022/01/01 12:36:35;;;;;;;8.80;3.95;;;14.90;99.90;;;;;;4998551;28;20084;-86
2022/01/01 12:39:08;;;;;;;9.98;4.00;;;15.00;99.90;;;;;;5013902;28;20105;-86
2022/01/01 12:41:55;;;;;;;8.10;4.60;;;15.00;99.90;;;;;;5014739;28;20391;-86
2022/01/01 12:44:23;;;;;;;9.32;4.22;;;15.10;99.90;;;;;;5014480;28;20067;-85
2022/01/01 12:46:57;;;;;;;8.27;4.18;;;15.00;99.90;;;;;;4997091;28;20113;-84
2022/01/01 12:49:22;;;;;;;9.75;4.05;;;15.10;99.90;;;;;;5026594;28;20505;-88